Terminal Aerodrome Forecast
Issued by NWS

Home | Current Version | Previous Version | Text Only | Print | Product List | Glossary On
Versions: 1 2 3 4 5 6 7 8 9 10 11 12 13 14 15 16 17 18 19
000
FTPA31 PHFO 301120
TAFHOG
TAF
PHOG 301120Z 3012/0112 35008KT 6SM -RA SCT015 BKN035
      TEMPO 3012/3016 5SM SHRA BR SCT007 BKN020 OVC030
     FM302000 VRB06G17KT P6SM VCSH SCT015 BKN035
     FM010600 14009KT P6SM VCSH SCT020 BKN040
      AMD LTD TO VIS AND WIND TIL 301600=

USA.gov is the U.S. government's official web portal to all federal, state and local government web resources and services.